Time;durP1;ratioP1;P1;durP2;ratioP2;P2;SDS_P1;SDS_P2;PMS_P1;PMS_P2;Temp;Humidity;BMP_temperature;BMP_pressure;BME280_temperature;BME280_humidity;BME280_pressure;Samples;Min_cycle;Max_cycle;Signal;HPM_P1;HPM_P2
2021/06/20 00:00:24;;;;;;;9.57;6.50;;;23.80;99.90;;;;;;5079685;28;20537;-82
2021/06/20 00:02:52;;;;;;;11.03;6.60;;;23.80;99.90;;;;;;5075492;28;20831;-82
2021/06/20 00:05:20;;;;;;;9.17;7.90;;;23.70;99.90;;;;;;5083859;28;20555;-82
2021/06/20 00:07:50;;;;;;;11.07;8.17;;;23.70;99.90;;;;;;5083813;28;20468;-85
2021/06/20 00:10:21;;;;;;;11.93;9.10;;;23.70;99.90;;;;;;5083759;28;20947;-82
2021/06/20 00:12:49;;;;;;;11.70;8.53;;;23.60;99.90;;;;;;5086347;28;20468;-82
2021/06/20 00:15:18;;;;;;;12.13;7.60;;;23.60;99.90;;;;;;5083456;28;20960;-83
2021/06/20 00:17:47;;;;;;;10.53;8.17;;;23.60;99.90;;;;;;5078546;28;20481;-82
2021/06/20 00:20:16;;;;;;;10.63;8.73;;;23.60;99.90;;;;;;5087617;28;20559;-82
2021/06/20 00:22:44;;;;;;;16.40;8.67;;;23.60;99.90;;;;;;5078492;28;20472;-82
2021/06/20 00:25:12;;;;;;;12.43;8.07;;;23.60;99.90;;;;;;5087685;28;20910;-82
2021/06/20 00:27:39;;;;;;;19.00;9.03;;;23.60;99.90;;;;;;5080152;28;20457;-85
2021/06/20 00:30:08;;;;;;;16.93;9.93;;;23.60;99.90;;;;;;5077032;28;20473;-83
2021/06/20 00:32:35;;;;;;;14.27;8.90;;;23.60;99.90;;;;;;5085941;28;20461;-82
2021/06/20 00:35:03;;;;;;;12.37;9.30;;;23.60;99.90;;;;;;5084772;28;20556;-86
2021/06/20 00:37:30;;;;;;;14.40;9.03;;;23.60;99.90;;;;;;5080987;28;20525;-82
2021/06/20 00:39:57;;;;;;;14.47;8.57;;;23.60;99.90;;;;;;5078532;28;20817;-82
2021/06/20 00:42:24;;;;;;;17.70;9.47;;;23.60;99.90;;;;;;5076845;28;20458;-84
2021/06/20 00:44:52;;;;;;;13.53;9.10;;;23.60;99.90;;;;;;5077832;28;20455;-82
2021/06/20 00:47:20;;;;;;;17.53;10.33;;;23.60;99.90;;;;;;5083344;28;20480;-83
2021/06/20 00:49:47;;;;;;;15.50;9.37;;;23.60;99.90;;;;;;5082845;28;20540;-82
2021/06/20 00:52:16;;;;;;;12.80;9.00;;;23.60;99.90;;;;;;5079885;28;20556;-83
2021/06/20 00:54:47;;;;;;;9.50;7.83;;;23.60;99.90;;;;;;5084926;28;20469;-80
2021/06/20 00:57:15;;;;;;;11.27;8.00;;;23.60;99.90;;;;;;5083642;28;20450;-83
2021/06/20 00:59:43;;;;;;;11.23;7.40;;;23.60;99.90;;;;;;5088263;28;20564;-84
2021/06/20 01:02:11;;;;;;;7.53;6.33;;;23.60;99.90;;;;;;5075809;28;20466;-82
2021/06/20 01:04:38;;;;;;;10.07;6.13;;;23.60;99.90;;;;;;5083942;28;20573;-80
2021/06/20 01:07:05;;;;;;;12.43;6.30;;;23.60;99.90;;;;;;5082109;28;20511;-82
2021/06/20 01:09:33;;;;;;;9.23;6.37;;;23.60;99.90;;;;;;5081351;28;20597;-81
2021/06/20 01:12:01;;;;;;;7.77;6.30;;;23.60;99.90;;;;;;5083887;28;20466;-81
2021/06/20 01:14:28;;;;;;;15.80;8.17;;;23.60;99.90;;;;;;5079221;28;20491;-81
2021/06/20 01:16:56;;;;;;;11.03;8.50;;;23.60;99.90;;;;;;5081102;28;20455;-81
2021/06/20 01:19:23;;;;;;;12.20;7.23;;;23.60;99.90;;;;;;5091354;28;21013;-84
2021/06/20 01:21:51;;;;;;;12.27;7.43;;;23.60;99.90;;;;;;5087482;28;20472;-81
2021/06/20 01:24:19;;;;;;;13.40;5.97;;;23.60;99.90;;;;;;5078384;28;20516;-86
2021/06/20 01:26:46;;;;;;;11.23;5.00;;;23.60;99.90;;;;;;5079430;28;20458;-81
2021/06/20 01:29:15;;;;;;;9.30;4.90;;;23.60;99.90;;;;;;5083566;28;20478;-81
2021/06/20 01:31:49;;;;;;;6.60;4.73;;;23.60;99.90;;;;;;5088353;28;20500;-81
2021/06/20 01:34:17;;;;;;;8.93;5.07;;;23.60;99.90;;;;;;5075613;28;21010;-81
2021/06/20 01:36:44;;;;;;;5.70;4.90;;;23.60;99.90;;;;;;5082853;28;20510;-82
2021/06/20 01:39:12;;;;;;;9.40;4.90;;;23.60;99.90;;;;;;5083575;28;20477;-81
2021/06/20 01:41:40;;;;;;;8.47;4.60;;;23.60;99.90;;;;;;5079834;28;20485;-81
2021/06/20 01:44:07;;;;;;;8.43;4.20;;;23.60;99.90;;;;;;5085008;28;20464;-81
2021/06/20 01:46:34;;;;;;;8.70;4.23;;;23.60;99.90;;;;;;5074499;28;20461;-81
2021/06/20 01:49:01;;;;;;;6.70;3.33;;;23.60;99.90;;;;;;5088509;28;20556;-81
2021/06/20 01:51:28;;;;;;;6.50;3.20;;;23.60;99.90;;;;;;5089201;28;20468;-83
2021/06/20 01:53:58;;;;;;;4.30;2.83;;;23.60;99.90;;;;;;5078120;28;20462;-81
2021/06/20 01:56:26;;;;;;;7.10;2.73;;;23.60;99.90;;;;;;5084733;28;20465;-81
2021/06/20 01:58:54;;;;;;;4.60;2.53;;;23.60;99.90;;;;;;5086219;28;20473;-84
2021/06/20 02:01:21;;;;;;;6.83;2.77;;;23.60;99.90;;;;;;5092963;28;20482;-82
2021/06/20 02:03:48;;;;;;;4.50;3.07;;;23.50;99.90;;;;;;5091950;28;20453;-81
2021/06/20 02:06:16;;;;;;;5.40;2.80;;;23.60;99.90;;;;;;5075386;28;20470;-84
2021/06/20 02:08:43;;;;;;;3.23;2.93;;;23.50;99.90;;;;;;5075499;28;20482;-82
2021/06/20 02:11:11;;;;;;;7.00;3.53;;;23.60;99.90;;;;;;5085494;28;20468;-80
2021/06/20 02:13:38;;;;;;;5.80;3.17;;;23.50;99.90;;;;;;5087857;28;20457;-81
2021/06/20 02:16:06;;;;;;;9.23;3.30;;;23.50;99.90;;;;;;5090165;28;20569;-82
2021/06/20 02:18:34;;;;;;;3.23;2.73;;;23.50;99.90;;;;;;5082410;28;20560;-84
2021/06/20 02:21:01;;;;;;;7.27;2.90;;;23.40;99.90;;;;;;5083619;28;20505;-82
2021/06/20 02:23:28;;;;;;;4.93;2.70;;;23.40;99.90;;;;;;5076337;28;20461;-80
2021/06/20 02:25:55;;;;;;;5.53;3.50;;;23.40;99.90;;;;;;5089409;28;21059;-81
2021/06/20 02:28:22;;;;;;;7.43;2.80;;;23.40;99.90;;;;;;5089178;28;20497;-83
2021/06/20 02:30:49;;;;;;;6.87;3.33;;;23.40;99.90;;;;;;5070871;28;20476;-80
2021/06/20 02:33:17;;;;;;;4.50;2.90;;;23.40;99.90;;;;;;5084724;28;20833;-81
2021/06/20 02:35:44;;;;;;;12.77;3.20;;;23.30;99.90;;;;;;5091433;28;20535;-81
2021/06/20 02:38:11;;;;;;;7.00;3.37;;;23.30;99.90;;;;;;5093115;28;20464;-80
2021/06/20 02:40:38;;;;;;;8.00;3.70;;;23.30;99.90;;;;;;5090754;28;20472;-80
2021/06/20 02:43:05;;;;;;;10.27;4.67;;;23.30;99.90;;;;;;5087635;28;20549;-81
2021/06/20 02:45:32;;;;;;;4.87;3.33;;;23.30;99.90;;;;;;5082424;28;20557;-81
2021/06/20 02:47:59;;;;;;;9.50;4.10;;;23.30;99.90;;;;;;5089716;28;22341;-80
2021/06/20 02:50:28;;;;;;;4.73;3.60;;;23.30;99.90;;;;;;5083910;28;20471;-81
2021/06/20 02:52:55;;;;;;;10.77;3.43;;;23.20;99.90;;;;;;5093920;28;20461;-80
2021/06/20 02:55:22;;;;;;;9.97;3.43;;;23.20;99.90;;;;;;5086069;28;20540;-78
2021/06/20 02:57:49;;;;;;;5.00;3.37;;;23.20;99.90;;;;;;5088304;28;20460;-81
2021/06/20 03:00:16;;;;;;;6.00;3.50;;;23.20;99.90;;;;;;5093297;28;20481;-80
2021/06/20 03:02:43;;;;;;;4.70;3.37;;;23.20;99.90;;;;;;5091629;28;20471;-81
2021/06/20 03:05:11;;;;;;;6.90;3.07;;;23.20;99.90;;;;;;5082798;28;20478;-80
2021/06/20 03:07:39;;;;;;;7.13;3.20;;;23.20;99.90;;;;;;5078017;28;20465;-82
2021/06/20 03:10:08;;;;;;;7.20;2.97;;;23.20;99.90;;;;;;5090606;28;20485;-81
2021/06/20 03:12:34;;;;;;;4.70;2.83;;;23.20;99.90;;;;;;5088156;28;20460;-80
2021/06/20 03:15:01;;;;;;;3.97;3.03;;;23.10;99.90;;;;;;5078057;28;20466;-83
2021/06/20 03:17:29;;;;;;;5.90;2.67;;;23.10;99.90;;;;;;5086741;28;20510;-80
2021/06/20 03:19:56;;;;;;;6.90;2.70;;;23.00;99.90;;;;;;5086317;28;20458;-82
2021/06/20 03:22:22;;;;;;;6.37;3.33;;;23.00;99.90;;;;;;5076048;28;20964;-83
2021/06/20 03:24:51;;;;;;;2.73;2.13;;;22.90;99.90;;;;;;5075066;28;21133;-83
2021/06/20 03:27:20;;;;;;;3.50;2.43;;;22.90;99.90;;;;;;5083447;28;20833;-82
2021/06/20 03:29:47;;;;;;;8.43;2.40;;;22.90;99.90;;;;;;5078480;28;20484;-82
2021/06/20 03:32:16;;;;;;;7.37;2.20;;;22.80;99.90;;;;;;5077704;28;20624;-81
2021/06/20 03:34:43;;;;;;;3.70;2.50;;;22.80;99.90;;;;;;5073513;28;20876;-81
2021/06/20 03:37:10;;;;;;;8.97;2.80;;;22.70;99.90;;;;;;5081420;28;20462;-80
2021/06/20 03:39:37;;;;;;;9.07;2.50;;;22.70;99.90;;;;;;5075919;28;20472;-80
2021/06/20 03:42:05;;;;;;;2.60;2.40;;;22.70;99.90;;;;;;5083785;28;20987;-80
2021/06/20 03:44:33;;;;;;;4.17;2.10;;;22.60;99.90;;;;;;5079449;28;20549;-83
2021/06/20 03:47:00;;;;;;;5.43;2.50;;;22.70;99.90;;;;;;5082027;28;20461;-80
2021/06/20 03:49:26;;;;;;;3.93;2.10;;;22.60;99.90;;;;;;5080246;28;20533;-82
2021/06/20 03:51:54;;;;;;;10.23;2.50;;;22.60;99.90;;;;;;5082344;28;20818;-80
2021/06/20 03:54:24;;;;;;;5.13;2.50;;;22.60;99.90;;;;;;5087287;28;20465;-80
2021/06/20 03:56:51;;;;;;;4.50;2.53;;;22.60;99.90;;;;;;5082937;28;20465;-81
2021/06/20 03:59:19;;;;;;;3.30;2.40;;;22.50;99.90;;;;;;5083464;28;20549;-81
2021/06/20 04:01:46;;;;;;;6.83;3.10;;;22.50;99.90;;;;;;5080825;28;20861;-80
2021/06/20 04:04:13;;;;;;;3.27;2.50;;;22.50;99.90;;;;;;5074278;28;20468;-80
2021/06/20 04:06:40;;;;;;;3.80;2.33;;;22.50;99.90;;;;;;5082146;28;20463;-80
2021/06/20 04:09:07;;;;;;;7.97;2.87;;;22.50;99.90;;;;;;5077655;28;20672;-80
2021/06/20 04:11:34;;;;;;;5.70;2.80;;;22.50;99.90;;;;;;5076309;28;20460;-80
2021/06/20 04:14:01;;;;;;;2.40;2.20;;;22.50;99.90;;;;;;5073963;28;20459;-80
2021/06/20 04:16:30;;;;;;;5.23;2.30;;;22.50;99.90;;;;;;5075907;28;22028;-80
2021/06/20 04:18:57;;;;;;;4.77;2.37;;;22.50;99.90;;;;;;5076937;28;20506;-80
2021/06/20 04:21:24;;;;;;;3.70;2.60;;;22.50;99.90;;;;;;5079530;28;20865;-80
2021/06/20 04:23:52;;;;;;;4.03;2.10;;;22.50;99.90;;;;;;5074956;28;20452;-80
2021/06/20 04:26:19;;;;;;;5.13;2.57;;;22.50;99.90;;;;;;5079618;28;20949;-81
2021/06/20 04:28:46;;;;;;;4.80;2.10;;;22.50;99.90;;;;;;5070108;28;20462;-79
2021/06/20 04:31:14;;;;;;;2.83;2.53;;;22.50;99.90;;;;;;5084241;28;21084;-80
2021/06/20 04:33:42;;;;;;;2.50;2.23;;;22.50;99.90;;;;;;5083576;28;20467;-80
2021/06/20 04:36:09;;;;;;;2.40;2.20;;;22.50;99.90;;;;;;5080940;28;20457;-81
2021/06/20 04:38:37;;;;;;;5.30;2.23;;;22.50;99.90;;;;;;5081632;28;20454;-82
2021/06/20 04:41:06;;;;;;;2.80;2.40;;;22.50;99.90;;;;;;5084474;28;20945;-81
2021/06/20 04:43:56;;;;;;;3.93;2.43;;;22.50;99.90;;;;;;5078686;28;20459;-81
2021/06/20 04:46:26;;;;;;;2.43;2.23;;;22.60;99.90;;;;;;5090483;28;20568;-82
2021/06/20 04:48:56;;;;;;;4.20;3.07;;;22.60;99.90;;;;;;5082076;28;20457;-80
2021/06/20 04:51:23;;;;;;;5.00;2.80;;;22.60;99.90;;;;;;5080928;28;20501;-81
2021/06/20 04:53:50;;;;;;;4.70;2.30;;;22.60;99.90;;;;;;5078558;28;20508;-81
2021/06/20 04:56:17;;;;;;;3.80;2.40;;;22.60;99.90;;;;;;5083427;28;20630;-80
2021/06/20 04:58:44;;;;;;;2.80;2.57;;;22.60;99.90;;;;;;5082810;28;20964;-81
2021/06/20 05:01:11;;;;;;;3.07;2.60;;;22.60;99.90;;;;;;5082097;28;20491;-82
2021/06/20 05:03:38;;;;;;;3.57;2.20;;;22.60;99.90;;;;;;5080723;28;20474;-81
2021/06/20 05:06:06;;;;;;;2.57;2.37;;;22.60;99.90;;;;;;5076387;28;20473;-81
2021/06/20 05:08:33;;;;;;;4.30;2.20;;;22.60;99.90;;;;;;5084929;28;20465;-80
2021/06/20 05:11:00;;;;;;;5.50;2.90;;;22.70;99.90;;;;;;5082677;28;20583;-80
2021/06/20 05:13:27;;;;;;;2.83;2.27;;;22.70;99.90;;;;;;5080254;28;20581;-81
2021/06/20 05:15:54;;;;;;;9.23;2.87;;;22.70;99.90;;;;;;5083039;28;20981;-80
2021/06/20 05:18:22;;;;;;;3.70;2.57;;;22.70;99.90;;;;;;5084864;28;20482;-82
2021/06/20 05:20:49;;;;;;;5.73;3.13;;;22.80;99.90;;;;;;5076911;28;20458;-81
2021/06/20 05:23:17;;;;;;;3.30;2.50;;;22.70;99.90;;;;;;5082239;28;20820;-81
2021/06/20 05:25:44;;;;;;;4.77;2.63;;;22.80;99.90;;;;;;5083025;28;20980;-80
2021/06/20 05:28:11;;;;;;;2.47;2.27;;;22.80;99.90;;;;;;5076471;28;20554;-80
2021/06/20 05:30:38;;;;;;;2.87;2.63;;;22.80;99.90;;;;;;5081931;28;20974;-81
2021/06/20 05:33:05;;;;;;;3.10;2.50;;;22.80;99.90;;;;;;5080992;28;20469;-80
2021/06/20 05:35:33;;;;;;;3.40;2.57;;;22.80;99.90;;;;;;5079606;28;20474;-82
2021/06/20 05:38:00;;;;;;;5.73;2.40;;;22.80;99.90;;;;;;5085588;28;20944;-80
2021/06/20 05:40:28;;;;;;;9.50;2.77;;;22.80;99.90;;;;;;5081111;28;20999;-80
2021/06/20 05:42:55;;;;;;;5.40;2.37;;;22.90;99.90;;;;;;5079688;28;20552;-81
2021/06/20 05:45:22;;;;;;;3.53;3.17;;;22.90;99.90;;;;;;5082073;28;20466;-81
2021/06/20 05:47:49;;;;;;;3.40;2.20;;;22.90;99.90;;;;;;5081573;28;20464;-81
2021/06/20 05:50:16;;;;;;;2.80;2.33;;;22.90;99.90;;;;;;5073359;28;20491;-81
2021/06/20 05:52:43;;;;;;;9.87;2.43;;;22.90;99.90;;;;;;5080147;28;20469;-80
2021/06/20 05:55:10;;;;;;;5.30;2.80;;;23.00;99.90;;;;;;5083293;28;20470;-82
2021/06/20 05:57:38;;;;;;;6.70;2.40;;;23.00;99.90;;;;;;5080837;28;20472;-81
2021/06/20 06:00:08;;;;;;;3.10;2.90;;;23.00;99.90;;;;;;5082125;28;22608;-80
2021/06/20 06:02:35;;;;;;;6.20;2.30;;;23.10;99.90;;;;;;5080866;28;20470;-80
2021/06/20 06:05:02;;;;;;;2.87;2.60;;;23.10;99.90;;;;;;5079135;28;20473;-81
2021/06/20 06:07:29;;;;;;;2.43;2.20;;;23.20;99.90;;;;;;5078392;28;20454;-80
2021/06/20 06:09:56;;;;;;;2.70;2.50;;;23.20;99.90;;;;;;5079793;28;20551;-80
2021/06/20 06:12:24;;;;;;;4.87;2.40;;;23.20;99.90;;;;;;5081538;28;20960;-81
2021/06/20 06:14:54;;;;;;;4.27;2.80;;;23.20;99.90;;;;;;5079080;28;20484;-82
2021/06/20 06:17:21;;;;;;;5.00;2.50;;;23.20;99.90;;;;;;5081517;28;20458;-80
2021/06/20 06:19:49;;;;;;;2.63;2.43;;;23.20;99.90;;;;;;5085881;28;21004;-81
2021/06/20 06:22:16;;;;;;;2.60;2.40;;;23.20;99.90;;;;;;5074679;28;20461;-81
2021/06/20 06:24:44;;;;;;;2.53;2.10;;;23.20;99.90;;;;;;5072558;28;20465;-81
2021/06/20 06:27:11;;;;;;;3.43;2.53;;;23.30;99.90;;;;;;5079151;28;20463;-71
2021/06/20 06:29:38;;;;;;;5.30;2.57;;;23.30;99.90;;;;;;5081656;28;20458;-71
2021/06/20 06:32:07;;;;;;;2.60;2.40;;;23.40;99.90;;;;;;5086603;28;20454;-70
2021/06/20 06:34:35;;;;;;;2.90;2.70;;;23.50;99.90;;;;;;5082975;28;20454;-71
2021/06/20 06:37:02;;;;;;;3.30;2.60;;;23.50;99.90;;;;;;5083842;28;20786;-71
2021/06/20 06:39:29;;;;;;;7.93;2.63;;;23.60;99.90;;;;;;5078904;28;20467;-70
2021/06/20 06:41:58;;;;;;;6.80;2.87;;;23.60;99.90;;;;;;5074543;28;20493;-71
2021/06/20 06:44:25;;;;;;;2.70;2.50;;;23.70;99.90;;;;;;5082661;28;20483;-71
2021/06/20 06:46:52;;;;;;;5.53;2.00;;;23.70;99.90;;;;;;5084712;28;20460;-71
2021/06/20 06:49:20;;;;;;;2.30;2.10;;;23.70;99.90;;;;;;5081232;28;20462;-70
2021/06/20 06:51:47;;;;;;;4.00;2.90;;;23.80;99.90;;;;;;5080599;28;20702;-71
2021/06/20 06:54:14;;;;;;;3.27;2.50;;;23.90;99.90;;;;;;5079202;28;20469;-70
2021/06/20 06:56:41;;;;;;;2.47;2.27;;;23.90;99.90;;;;;;5076638;28;20510;-71
2021/06/20 06:59:08;;;;;;;3.80;2.33;;;23.90;99.90;;;;;;5085458;28;20458;-71
2021/06/20 07:01:35;;;;;;;2.57;2.00;;;24.00;99.90;;;;;;5085713;28;20841;-71
2021/06/20 07:04:02;;;;;;;2.43;2.00;;;24.00;99.90;;;;;;5079124;28;20470;-71
2021/06/20 07:06:30;;;;;;;2.30;1.97;;;24.10;99.90;;;;;;5073868;28;20464;-70
2021/06/20 07:08:57;;;;;;;4.30;2.37;;;24.10;99.90;;;;;;5072978;28;20498;-71
2021/06/20 07:11:24;;;;;;;3.00;2.33;;;24.10;99.90;;;;;;5076948;28;20496;-70
2021/06/20 07:13:51;;;;;;;2.90;2.30;;;24.10;99.90;;;;;;5073661;28;20476;-70
2021/06/20 07:16:17;;;;;;;3.97;2.20;;;24.10;99.90;;;;;;5083569;28;20463;-71
2021/06/20 07:18:44;;;;;;;3.30;2.37;;;24.10;99.90;;;;;;5081591;28;20482;-70
2021/06/20 07:21:11;;;;;;;3.00;2.53;;;24.10;99.90;;;;;;5078030;28;20531;-70
2021/06/20 07:23:39;;;;;;;7.10;2.30;;;24.10;99.90;;;;;;5074074;28;21137;-71
2021/06/20 07:26:06;;;;;;;3.57;2.20;;;24.20;99.90;;;;;;5075107;28;20462;-70
2021/06/20 07:28:33;;;;;;;2.57;2.20;;;24.20;99.90;;;;;;5078718;28;20873;-71
2021/06/20 07:31:00;;;;;;;4.33;2.23;;;24.30;99.90;;;;;;5078161;28;20477;-70
2021/06/20 07:33:27;;;;;;;5.87;2.00;;;24.40;99.90;;;;;;5073421;28;20459;-71
2021/06/20 07:35:57;;;;;;;3.33;2.20;;;24.50;99.90;;;;;;5074587;28;20459;-70
2021/06/20 07:38:24;;;;;;;2.30;2.10;;;24.60;99.90;;;;;;5074434;28;20985;-70
2021/06/20 07:40:52;;;;;;;6.83;3.03;;;24.70;99.90;;;;;;5069860;28;20453;-71
2021/06/20 07:43:21;;;;;;;2.20;1.90;;;24.70;99.90;;;;;;5076739;28;20463;-70
2021/06/20 07:45:49;;;;;;;2.77;2.57;;;24.80;99.90;;;;;;5079279;28;20520;-70
2021/06/20 07:48:17;;;;;;;2.33;1.80;;;24.80;99.90;;;;;;5073369;28;20458;-70
2021/06/20 07:50:43;;;;;;;2.70;2.10;;;24.80;99.90;;;;;;5074960;28;20691;-71
2021/06/20 07:53:10;;;;;;;1.93;1.83;;;24.80;99.90;;;;;;5070895;28;20961;-70
2021/06/20 07:55:37;;;;;;;2.90;1.87;;;24.90;99.90;;;;;;5081257;28;20519;-71
2021/06/20 07:58:05;;;;;;;2.80;2.20;;;25.00;99.90;;;;;;5080332;28;20546;-71
2021/06/20 08:00:32;;;;;;;2.90;1.90;;;25.10;99.90;;;;;;5077751;28;20498;-71
2021/06/20 08:02:59;;;;;;;3.40;2.30;;;25.10;99.90;;;;;;5074656;28;20458;-71
2021/06/20 08:05:26;;;;;;;5.07;2.10;;;25.10;99.90;;;;;;5079111;28;20460;-70
2021/06/20 08:07:52;;;;;;;2.63;2.00;;;25.10;99.90;;;;;;5080198;28;20512;-80
2021/06/20 08:10:19;;;;;;;3.10;2.10;;;25.20;99.90;;;;;;5085882;28;20469;-83
2021/06/20 08:12:46;;;;;;;3.23;1.80;;;25.30;99.90;;;;;;5080648;28;20841;-82
2021/06/20 08:15:15;;;;;;;3.40;2.27;;;25.40;99.90;;;;;;5079923;28;20480;-80
2021/06/20 08:17:42;;;;;;;1.93;1.83;;;25.50;99.80;;;;;;5079511;28;20461;-81
2021/06/20 08:20:11;;;;;;;2.80;1.70;;;25.50;98.30;;;;;;5078331;28;21160;-81
2021/06/20 08:22:38;;;;;;;3.43;2.10;;;25.40;98.40;;;;;;5075341;28;20557;-81
2021/06/20 08:25:07;;;;;;;4.80;2.00;;;25.40;98.50;;;;;;5079469;28;20960;-81
2021/06/20 08:27:33;;;;;;;1.97;1.87;;;25.40;98.60;;;;;;5080101;28;20948;-80
2021/06/20 08:30:00;;;;;;;2.17;2.07;;;25.30;98.40;;;;;;5079615;28;20457;-81
2021/06/20 08:32:30;;;;;;;2.20;2.07;;;25.40;98.40;;;;;;5079253;28;20494;-81
2021/06/20 08:34:57;;;;;;;3.57;1.90;;;25.40;98.80;;;;;;5085286;28;20516;-82
2021/06/20 08:37:24;;;;;;;2.30;2.10;;;25.40;98.40;;;;;;5091717;28;20459;-81
2021/06/20 08:39:51;;;;;;;2.63;2.43;;;25.40;97.90;;;;;;5080851;28;20457;-81
2021/06/20 08:42:18;;;;;;;2.70;2.03;;;25.30;98.00;;;;;;5079699;28;20907;-80
2021/06/20 08:44:45;;;;;;;3.07;2.10;;;25.30;98.30;;;;;;5075858;28;20927;-81
2021/06/20 08:47:13;;;;;;;3.00;1.97;;;25.40;98.50;;;;;;5088496;28;20454;-82
2021/06/20 08:49:43;;;;;;;3.33;1.97;;;25.40;97.90;;;;;;5077498;28;20465;-81
2021/06/20 08:52:10;;;;;;;2.37;2.20;;;25.50;97.90;;;;;;5076831;28;20634;-81
2021/06/20 08:54:38;;;;;;;1.97;1.87;;;25.60;97.90;;;;;;5077556;28;20454;-81
2021/06/20 08:57:07;;;;;;;1.90;1.80;;;25.70;97.80;;;;;;5078991;28;20457;-81
2021/06/20 08:59:34;;;;;;;6.27;2.13;;;25.90;97.80;;;;;;5080494;28;20484;-82
2021/06/20 09:02:01;;;;;;;2.23;2.07;;;26.10;96.80;;;;;;5077103;28;20483;-81
2021/06/20 09:04:30;;;;;;;2.50;1.90;;;26.20;96.50;;;;;;5077322;28;20493;-81
2021/06/20 09:07:02;;;;;;;2.10;1.90;;;26.30;96.20;;;;;;5077549;28;20446;-80
2021/06/20 09:09:29;;;;;;;3.27;2.20;;;26.40;96.20;;;;;;5074119;28;20777;-81
2021/06/20 09:12:07;;;;;;;2.30;2.03;;;26.60;96.10;;;;;;5075031;28;20588;-81
2021/06/20 09:14:43;;;;;;;2.00;1.90;;;26.70;95.90;;;;;;5068277;28;20822;-81
2021/06/20 09:17:09;;;;;;;2.43;2.13;;;26.70;95.10;;;;;;5081322;28;20454;-82
2021/06/20 09:19:37;;;;;;;2.53;2.03;;;26.70;94.80;;;;;;5081761;28;20999;-82
2021/06/20 09:22:08;;;;;;;2.30;2.10;;;26.70;94.50;;;;;;5073490;28;20540;-80
2021/06/20 09:24:36;;;;;;;2.83;1.93;;;26.80;95.00;;;;;;5075728;28;20474;-81
2021/06/20 09:27:04;;;;;;;1.93;1.83;;;26.80;94.50;;;;;;5076653;28;21045;-80
2021/06/20 09:29:34;;;;;;;2.80;1.90;;;26.90;94.50;;;;;;5074971;28;20463;-81
2021/06/20 09:32:03;;;;;;;2.80;1.90;;;27.10;94.70;;;;;;5082403;28;20485;-81
2021/06/20 09:34:40;;;;;;;2.17;1.90;;;27.20;94.20;;;;;;5077847;28;20485;-80
2021/06/20 09:37:08;;;;;;;4.13;2.00;;;27.30;93.60;;;;;;5083583;28;20470;-81
2021/06/20 09:39:36;;;;;;;2.40;1.97;;;27.30;93.10;;;;;;5079552;28;20539;-80
2021/06/20 09:42:05;;;;;;;1.73;1.63;;;27.30;93.40;;;;;;5082534;28;20561;-81
2021/06/20 09:44:40;;;;;;;2.63;2.00;;;27.40;93.50;;;;;;5081367;28;20463;-80
2021/06/20 09:47:08;;;;;;;2.00;1.90;;;27.50;93.80;;;;;;5081486;28;20991;-81
2021/06/20 09:49:36;;;;;;;2.87;2.17;;;27.70;93.20;;;;;;5077331;28;20453;-80
2021/06/20 09:52:04;;;;;;;2.20;2.00;;;27.80;92.40;;;;;;5085043;28;20493;-80
2021/06/20 09:54:34;;;;;;;1.53;1.43;;;27.70;92.20;;;;;;5075107;28;20448;-81
2021/06/20 09:57:02;;;;;;;3.13;2.00;;;27.70;92.00;;;;;;5076169;28;20466;-81
2021/06/20 09:59:30;;;;;;;2.10;2.00;;;27.70;92.30;;;;;;5081562;28;20454;-80
2021/06/20 10:02:10;;;;;;;1.80;1.70;;;27.80;92.00;;;;;;5082916;28;20479;-80
2021/06/20 10:04:39;;;;;;;2.97;1.90;;;27.90;92.40;;;;;;5081890;28;20532;-81
2021/06/20 10:07:08;;;;;;;2.20;1.90;;;28.10;91.40;;;;;;5081611;28;20458;-81
2021/06/20 10:09:38;;;;;;;4.47;1.90;;;28.20;90.60;;;;;;5078558;28;21051;-82
2021/06/20 10:12:07;;;;;;;3.90;1.73;;;28.20;90.60;;;;;;5077948;28;20517;-80
2021/06/20 10:14:34;;;;;;;1.60;1.50;;;28.30;89.90;;;;;;5079789;28;20461;-80
2021/06/20 10:17:08;;;;;;;1.80;1.70;;;28.30;90.20;;;;;;5076248;28;20531;-81
2021/06/20 10:19:40;;;;;;;1.73;1.63;;;28.40;90.40;;;;;;5074502;28;20500;-80
2021/06/20 10:22:09;;;;;;;2.20;2.00;;;28.40;90.00;;;;;;5080862;28;20462;-81
2021/06/20 10:24:46;;;;;;;1.97;1.77;;;28.40;90.00;;;;;;5079268;28;20461;-80
2021/06/20 10:27:28;;;;;;;1.97;1.87;;;28.50;90.20;;;;;;5077427;28;20972;-81
2021/06/20 10:29:56;;;;;;;1.67;1.57;;;28.60;89.50;;;;;;5076058;28;20463;-80
2021/06/20 10:32:25;;;;;;;2.30;1.73;;;28.70;89.20;;;;;;5058205;28;20570;-82
2021/06/20 10:34:54;;;;;;;1.60;1.50;;;28.70;89.20;;;;;;5078618;28;20672;-80
2021/06/20 10:37:22;;;;;;;2.30;1.70;;;28.70;88.60;;;;;;5083249;28;20950;-80
2021/06/20 10:39:51;;;;;;;1.60;1.50;;;28.70;87.90;;;;;;5078995;28;20918;-81
2021/06/20 10:42:19;;;;;;;3.00;1.63;;;28.80;88.70;;;;;;5078129;28;20450;-81
2021/06/20 10:44:49;;;;;;;2.13;1.93;;;28.80;89.20;;;;;;5075976;28;20453;-81
2021/06/20 10:47:31;;;;;;;2.23;1.57;;;28.90;89.20;;;;;;5083123;28;20607;-80
2021/06/20 10:49:59;;;;;;;3.87;2.60;;;28.90;89.10;;;;;;5076642;28;20540;-80
2021/06/20 10:52:27;;;;;;;2.43;2.03;;;28.80;88.20;;;;;;5078999;28;20496;-80
2021/06/20 10:55:15;;;;;;;1.80;1.70;;;28.70;87.80;;;;;;5082264;28;20898;-81
2021/06/20 10:57:50;;;;;;;2.03;1.60;;;28.60;89.00;;;;;;5080573;28;20462;-81
2021/06/20 11:00:28;;;;;;;1.80;1.70;;;28.60;88.90;;;;;;5075396;28;20971;-81
2021/06/20 11:02:55;;;;;;;2.00;1.90;;;28.60;88.20;;;;;;5077626;28;20476;-80
2021/06/20 11:05:24;;;;;;;1.63;1.53;;;28.70;88.90;;;;;;5077776;28;20753;-81
2021/06/20 11:07:51;;;;;;;1.87;1.77;;;28.90;89.10;;;;;;5081030;28;20461;-81
2021/06/20 11:10:26;;;;;;;1.93;1.83;;;29.00;88.40;;;;;;5080052;28;20934;-81
2021/06/20 11:12:56;;;;;;;1.87;1.77;;;29.00;88.10;;;;;;5078091;28;20552;-81
2021/06/20 11:15:27;;;;;;;3.10;1.97;;;28.90;88.40;;;;;;5081001;28;20460;-81
2021/06/20 11:18:05;;;;;;;1.80;1.70;;;28.90;89.30;;;;;;5074440;28;20474;-80
2021/06/20 11:20:33;;;;;;;3.13;1.80;;;28.90;88.60;;;;;;5076611;28;20462;-80
2021/06/20 11:23:00;;;;;;;3.23;2.00;;;28.90;88.50;;;;;;5078466;28;20468;-80
2021/06/20 11:25:29;;;;;;;1.70;1.60;;;28.90;88.00;;;;;;5077165;28;20462;-81
2021/06/20 11:27:57;;;;;;;2.27;1.63;;;28.80;88.70;;;;;;5075271;28;20473;-81
2021/06/20 11:30:25;;;;;;;2.03;1.60;;;28.70;86.90;;;;;;5074398;28;20553;-82
2021/06/20 11:32:52;;;;;;;4.47;1.63;;;28.60;87.40;;;;;;5077790;28;20913;-81
2021/06/20 11:35:20;;;;;;;1.90;1.80;;;28.70;88.10;;;;;;5073769;28;20581;-81
2021/06/20 11:37:49;;;;;;;1.90;1.80;;;28.70;87.00;;;;;;5081560;28;20461;-81
2021/06/20 11:40:19;;;;;;;2.20;1.77;;;28.60;86.50;;;;;;5072949;28;20471;-81
2021/06/20 11:42:49;;;;;;;2.13;1.60;;;28.60;87.30;;;;;;5082319;28;20462;-80
2021/06/20 11:45:18;;;;;;;5.33;1.80;;;28.60;87.70;;;;;;5083029;28;20524;-81
2021/06/20 11:47:48;;;;;;;1.80;1.70;;;28.60;87.70;;;;;;5078205;28;20445;-80
2021/06/20 11:50:18;;;;;;;1.80;1.70;;;28.50;87.40;;;;;;5075928;28;20571;-80
2021/06/20 11:52:46;;;;;;;4.13;2.00;;;28.50;87.00;;;;;;5078390;28;20498;-81
2021/06/20 11:55:15;;;;;;;3.90;2.10;;;28.40;87.20;;;;;;5078467;28;20462;-81
2021/06/20 11:57:42;;;;;;;2.60;2.37;;;28.40;86.50;;;;;;5078851;28;20472;-81
2021/06/20 12:00:14;;;;;;;2.27;1.90;;;28.40;87.40;;;;;;5078294;28;20493;-82
2021/06/20 12:02:41;;;;;;;2.30;1.77;;;28.40;86.60;;;;;;5072345;28;20472;-82
2021/06/20 12:05:14;;;;;;;2.50;1.97;;;28.50;86.30;;;;;;5075433;28;20462;-80
2021/06/20 12:07:42;;;;;;;1.67;1.57;;;28.80;85.00;;;;;;5079504;28;20461;-81
2021/06/20 12:10:12;;;;;;;1.73;1.63;;;29.00;85.30;;;;;;5079199;28;20545;-81
2021/06/20 12:12:39;;;;;;;1.60;1.50;;;29.10;84.40;;;;;;5071070;28;20860;-82
2021/06/20 12:15:08;;;;;;;2.60;1.70;;;29.20;84.20;;;;;;5070549;28;20458;-80
2021/06/20 12:17:38;;;;;;;1.70;1.60;;;29.30;83.10;;;;;;5080003;28;20468;-80
2021/06/20 12:20:07;;;;;;;1.90;1.80;;;29.40;82.80;;;;;;5079597;28;20476;-80
2021/06/20 12:22:44;;;;;;;1.50;1.40;;;29.60;83.10;;;;;;5077001;28;20978;-81
2021/06/20 12:25:12;;;;;;;1.60;1.50;;;29.80;81.70;;;;;;5075840;28;20473;-81
2021/06/20 12:27:40;;;;;;;1.70;1.47;;;29.90;81.70;;;;;;5072768;28;20457;-81
2021/06/20 12:30:15;;;;;;;1.70;1.60;;;30.10;81.10;;;;;;5078886;28;20453;-80
2021/06/20 12:32:43;;;;;;;1.63;1.50;;;30.20;81.50;;;;;;5074499;28;20492;-81
2021/06/20 12:35:20;;;;;;;3.00;1.60;;;30.30;81.90;;;;;;5077496;28;20694;-81
2021/06/20 12:37:49;;;;;;;1.70;1.60;;;30.40;80.80;;;;;;5086087;28;20468;-81
2021/06/20 12:40:18;;;;;;;5.80;1.87;;;30.40;81.30;;;;;;5076580;28;20920;-81
2021/06/20 12:42:47;;;;;;;1.60;1.50;;;30.40;80.70;;;;;;5078866;28;20485;-81
2021/06/20 12:45:23;;;;;;;2.73;2.40;;;30.30;79.70;;;;;;5076184;28;20484;-80
2021/06/20 12:47:51;;;;;;;2.20;1.77;;;30.30;79.80;;;;;;5070080;28;20454;-82
2021/06/20 12:50:26;;;;;;;2.10;1.80;;;30.20;80.50;;;;;;5077638;28;20554;-81